Holm, Orkney weather

 Latitude N 59° 29' 09"    Longitude E 03° 29' 02"    Elevation 33 ft

NOAA Style Reports for xulih weather

Select a Year or Month report

Report for 2017 Jun
                   Monthly Climatological Summary for Jun 2017

Name: xulih weather   City: Holm   State: Orkney
Elevation: 33 ft  Lat: N 58 53' 54"   Lon: W 002 53' 31"

                  Temperature (C), Rain (mm), Wind Speed (mph)

                                      Heat  Cool        Avg
    Mean                              Deg   Deg         Wind                 Dom
Day Temp  High   Time   Low    Time   Days  Days  Rain  Speed High   Time    Dir
----------------------------------------------------------------------------------
 1  18.4  18.4   00:00  18.4   00:00   0.0   0.1   0.0  12.4  32.0   05:20    NW
 2  18.4  18.4   00:00  18.4   00:00   0.0   0.1   0.0   5.1  16.1   13:55    NW
 3  18.4  18.4   00:00  18.4   00:00   0.0   0.1   0.0   7.4  17.4   16:13    NW
 4  18.4  18.4   00:00  18.4   00:00   0.0   0.1   0.0   5.0  12.5   12:47    NW
 5  18.4  18.4   00:00  18.4   00:00   0.0   0.1   0.0   9.3  17.9   17:46    NW
 6  18.4  18.4   00:00  18.4   00:00   0.0   0.1   0.0  14.3  26.6   13:42     N
 7  18.4  18.4   00:00  18.4   00:00   0.0   0.1   0.0  18.8  37.4   08:16     N
 8  18.4  18.4   00:00  18.4   00:00   0.0   0.1   0.0   8.8  19.7   21:31     N
 9  18.4  18.4   00:00  18.4   00:00   0.0   0.1   0.0  13.0  32.0   08:05   NNE
10  18.4  18.4   00:00  18.4   00:00   0.0   0.1   0.0   8.0  23.9   15:16     N
11  18.4  18.4   00:00  18.4   00:00   0.0   0.1   0.0   5.2  17.0   12:07     N
12  18.4  18.4   00:00  18.4   00:00   0.0   0.1   0.0   7.9  22.8   18:43   NNW
13  18.4  18.4   00:00  18.4   00:00   0.0   0.1   0.0   7.8  24.4   03:24    NW
14  18.4  18.4   00:00  18.4   00:00   0.0   0.1   0.0   6.6  17.9   23:15    NW
15  18.4  18.4   00:00  18.4   00:00   0.0   0.1   0.0   7.6  19.9   00:54    NW
16  18.4  18.4   00:00  18.4   00:00   0.0   0.1   0.0   8.5  19.9   11:53    NW
17  18.4  18.4   00:00  18.4   00:00   0.0   0.1   0.0   8.6  21.3   20:02    NW
18  18.4  18.4   00:00  18.4   00:00   0.0   0.1   0.0  11.6  26.4   11:26    NW
19  18.4  18.4   00:00  18.4   00:00   0.0   0.1   0.0  10.8  23.5   18:03    NW
20  18.4  18.4   00:00  18.4   00:00   0.0   0.1   0.0  11.3  23.0   03:20    NW
21  18.4  18.4   00:00  18.4   00:00   0.0   0.1   0.0  11.3  23.0   08:55    NW
22  18.4  18.4   00:00  18.4   00:00   0.0   0.1   0.0   9.6  22.1   22:16    NW
23  18.4  18.4   00:00  18.4   00:00   0.0   0.1   0.0  17.4  32.9   11:19    NW
24  18.4  18.4   00:00  18.4   00:00   0.0   0.1   0.0  24.0  46.1   15:32    NW
25  16.0  18.4   00:00   9.9   23:48   2.3   0.1   0.0  19.2  41.8   00:56    NW
26  11.4  14.2   12:16   8.4   05:57   6.9   0.0   0.0   6.8  14.3   09:01   NNE
27  11.4  17.4   14:33   6.5   02:37   6.9   0.0   0.0  11.8  20.6   11:38    SE
28  12.3  15.1   11:24  10.4   23:42   6.0   0.0   0.0  13.8  22.1   12:19     E
29  11.7  13.5   11:22  10.0   03:22   6.6   0.0   4.1  15.2  27.3   10:52   ENE
30  12.5  15.6   19:39   8.5   23:56   5.8   0.0   2.0   8.0  15.4   10:59   NNE
----------------------------------------------------------------------------------
    17.2  18.4     1     6.5    27    34.5   2.5   6.1  10.8  46.1    24     NNW

Max >=  27.0:  0
Max <=   0.0:  0
Min <=   0.0:  0
Min <= -18.0:  0
Max Rain: 4.1 on day 29
Days of Rain: 2 (>= 0.2 mm)  2 (>= 2.0 mm)  0 (>= 20.0 mm)
Heat Base: 18.3  Cool Base: 18.3  Method: Integration
:Home::now::gauges::today::yesterday::this month::this year::records::monthly records::reports::trends::forum:


Page updated 09/04/2015 12:35:00
powered by Cumulus v1.9.4 (1099)